createdAt,value
2018-09-06T00:00:21.048Z,9.70
2018-09-06T00:01:21.046Z,10.70
2018-09-06T00:02:21.043Z,11.40
2018-09-06T00:03:21.044Z,11.20
2018-09-06T00:04:21.040Z,10.80
2018-09-06T00:05:21.045Z,11.00
2018-09-06T00:06:21.043Z,10.60
2018-09-06T00:07:21.046Z,10.80
2018-09-06T00:08:21.044Z,11.90
2018-09-06T00:09:21.038Z,12.50
2018-09-06T00:10:21.038Z,12.30
2018-09-06T00:11:21.042Z,12.20
2018-09-06T00:12:21.041Z,12.20
2018-09-06T00:13:21.035Z,12.40
2018-09-06T00:14:21.035Z,12.80
2018-09-06T00:15:21.035Z,13.90
2018-09-06T00:16:21.035Z,12.20
2018-09-06T00:17:21.037Z,12.70
2018-09-06T00:18:21.037Z,12.70
2018-09-06T00:19:21.037Z,13.70
2018-09-06T00:20:21.036Z,15.50
2018-09-06T00:21:21.030Z,15.30
2018-09-06T00:22:21.030Z,15.80
2018-09-06T00:23:21.030Z,16.60
2018-09-06T00:24:21.030Z,15.40
2018-09-06T00:25:21.037Z,17.50
2018-09-06T00:26:21.036Z,16.50
2018-09-06T00:27:21.027Z,16.70
2018-09-06T00:28:21.028Z,16.80
2018-09-06T00:29:21.030Z,16.60
2018-09-06T00:30:21.030Z,17.30
2018-09-06T00:31:21.029Z,16.50
2018-09-06T00:32:21.028Z,17.60
2018-09-06T00:33:21.027Z,17.10
2018-09-06T00:34:21.021Z,18.50
2018-09-06T00:35:21.021Z,18.80
2018-09-06T00:36:21.020Z,19.50
2018-09-06T00:37:21.025Z,18.90
2018-09-06T00:38:21.024Z,18.90
2018-09-06T00:39:21.024Z,18.20
2018-09-06T00:40:21.024Z,19.00
2018-09-06T00:41:21.023Z,19.80
2018-09-06T00:42:21.017Z,19.40
2018-09-06T00:43:21.022Z,19.30
2018-09-06T00:44:21.022Z,19.50
2018-09-06T00:45:21.014Z,20.20
2018-09-06T00:46:21.013Z,19.50
2018-09-06T00:47:21.014Z,18.90
2018-09-06T00:48:21.012Z,18.60
2018-09-06T00:49:21.014Z,18.90
2018-09-06T00:50:21.014Z,18.30
2018-09-06T00:51:21.015Z,18.30
2018-09-06T00:52:21.013Z,18.10
2018-09-06T00:53:21.007Z,18.70
2018-09-06T00:54:21.007Z,18.10
2018-09-06T00:55:21.006Z,18.70
2018-09-06T00:56:21.006Z,18.60
2018-09-06T00:57:21.009Z,19.90
2018-09-06T00:58:21.012Z,18.80
2018-09-06T00:59:21.004Z,18.40
2018-09-06T01:00:21.001Z,17.40
2018-09-06T01:01:21.006Z,18.60
2018-09-06T01:02:21.004Z,18.40
2018-09-06T01:03:21.003Z,18.60
2018-09-06T01:04:21.006Z,17.70
2018-09-06T01:05:20.997Z,17.90
2018-09-06T01:06:20.999Z,18.00
2018-09-06T01:07:20.995Z,17.00
2018-09-06T01:08:21.000Z,18.20
2018-09-06T01:09:20.998Z,17.90
2018-09-06T01:10:20.998Z,17.10
2018-09-06T01:11:20.998Z,16.60
2018-09-06T01:12:20.997Z,18.00
2018-09-06T01:13:20.990Z,17.90
2018-09-06T01:14:20.989Z,17.70
2018-09-06T01:15:20.993Z,17.50
2018-09-06T01:16:20.993Z,16.40
2018-09-06T01:17:20.988Z,16.80
2018-09-06T01:18:20.986Z,16.60
2018-09-06T01:19:20.986Z,15.20
2018-09-06T01:20:20.986Z,15.80
2018-09-06T01:21:20.989Z,15.70
2018-09-06T01:22:20.989Z,15.10
2018-09-06T01:23:20.988Z,14.40
2018-09-06T01:24:20.988Z,14.90
2018-09-06T01:25:20.980Z,14.70
2018-09-06T01:26:20.980Z,14.90
2018-09-06T01:27:20.981Z,15.00
2018-09-06T01:28:20.977Z,14.70
2018-09-06T01:29:20.981Z,14.70
2018-09-06T01:30:20.980Z,14.70
2018-09-06T01:31:20.973Z,14.50
2018-09-06T01:32:20.975Z,14.20
2018-09-06T01:33:20.977Z,14.30
2018-09-06T01:34:20.977Z,13.40
2018-09-06T01:35:20.977Z,13.70
2018-09-06T01:36:20.974Z,13.90
2018-09-06T01:37:20.969Z,13.50
2018-09-06T01:38:20.979Z,13.60
2018-09-06T01:39:20.972Z,14.10
2018-09-06T01:40:20.966Z,13.80
2018-09-06T01:41:20.969Z,13.80
2018-09-06T01:42:20.969Z,13.60
2018-09-06T01:43:20.968Z,13.50
2018-09-06T01:44:20.971Z,13.40
2018-09-06T01:45:20.961Z,13.90
2018-09-06T01:46:20.959Z,14.00
2018-09-06T01:47:20.963Z,14.00
2018-09-06T01:48:20.962Z,12.80
2018-09-06T01:49:20.957Z,13.90
2018-09-06T01:50:20.955Z,14.60
2018-09-06T01:51:20.959Z,13.70
2018-09-06T01:52:20.957Z,13.60
2018-09-06T01:53:20.966Z,13.20
2018-09-06T01:54:20.957Z,13.40
2018-09-06T01:55:20.955Z,12.90
2018-09-06T01:56:20.955Z,13.00
2018-09-06T01:57:20.949Z,13.00
2018-09-06T01:58:20.948Z,12.50
2018-09-06T01:59:20.947Z,13.10
2018-09-06T02:00:20.950Z,13.20
2018-09-06T02:01:20.950Z,13.50
2018-09-06T02:02:20.949Z,12.90
2018-09-06T02:03:20.944Z,13.90
2018-09-06T02:04:20.943Z,13.20
2018-09-06T02:05:20.946Z,12.90
2018-09-06T02:06:20.945Z,13.50
2018-09-06T02:07:20.944Z,13.10
2018-09-06T02:08:20.942Z,13.60
2018-09-06T02:09:20.936Z,14.50
2018-09-06T02:10:20.942Z,13.00
2018-09-06T02:11:20.936Z,12.40
2018-09-06T02:12:20.935Z,14.10
2018-09-06T02:13:20.938Z,13.60
2018-09-06T02:14:20.936Z,12.20
2018-09-06T02:15:20.936Z,13.10
2018-09-06T02:16:20.936Z,13.20
2018-09-06T02:17:20.929Z,12.80
2018-09-06T02:18:20.929Z,13.00
2018-09-06T02:19:20.933Z,12.00
2018-09-06T02:20:20.933Z,11.70
2018-09-06T02:21:20.925Z,12.40
2018-09-06T02:22:20.924Z,13.20
2018-09-06T02:23:20.924Z,14.10
2018-09-06T02:24:21.001Z,15.30
2018-09-06T02:25:20.926Z,16.10
2018-09-06T02:26:20.925Z,16.70
2018-09-06T02:27:20.925Z,16.30
2018-09-06T02:28:20.924Z,17.20
2018-09-06T02:29:20.918Z,17.10
2018-09-06T02:30:20.918Z,17.50
2018-09-06T02:31:20.918Z,18.40
2018-09-06T02:32:20.916Z,19.70
2018-09-06T02:33:20.921Z,20.80
2018-09-06T02:34:20.918Z,20.90
2018-09-06T02:35:20.912Z,19.50
2018-09-06T02:36:20.911Z,19.80
2018-09-06T02:37:20.915Z,21.40
2018-09-06T02:38:20.914Z,21.50
2018-09-06T02:39:20.912Z,22.00
2018-09-06T02:40:20.911Z,22.00
2018-09-06T02:41:20.908Z,21.20
2018-09-06T02:42:20.905Z,22.50
2018-09-06T02:43:20.904Z,22.50
2018-09-06T02:44:20.902Z,22.00
2018-09-06T02:45:20.908Z,22.90
2018-09-06T02:46:20.903Z,22.00
2018-09-06T02:47:20.906Z,22.00
2018-09-06T02:48:20.902Z,21.40
2018-09-06T02:49:20.894Z,21.70
2018-09-06T02:50:20.894Z,22.20
2018-09-06T02:51:20.898Z,21.30
2018-09-06T02:52:20.897Z,22.20
2018-09-06T02:53:20.890Z,21.20
2018-09-06T02:54:20.889Z,22.60
2018-09-06T02:55:20.891Z,21.90
2018-09-06T02:56:20.886Z,23.20
2018-09-06T02:57:20.889Z,21.90
2018-09-06T02:58:20.887Z,22.60
2018-09-06T02:59:20.905Z,22.60
2018-09-06T03:00:20.886Z,22.00
2018-09-06T03:01:20.878Z,22.60
2018-09-06T03:02:20.879Z,22.90
2018-09-06T03:03:20.878Z,22.60
2018-09-06T03:04:20.875Z,23.50
2018-09-06T03:05:20.879Z,24.20
2018-09-06T03:06:20.876Z,23.30
2018-09-06T03:07:20.871Z,22.60
2018-09-06T03:08:20.870Z,23.10
2018-09-06T03:09:20.872Z,23.40
2018-09-06T03:10:20.871Z,24.00
2018-09-06T03:11:20.870Z,24.70
2018-09-06T03:12:20.870Z,24.00
2018-09-06T03:13:20.862Z,24.10
2018-09-06T03:14:20.861Z,24.60
2018-09-06T03:15:20.870Z,24.80
2018-09-06T03:16:20.860Z,23.70
2018-09-06T03:17:20.863Z,24.40
2018-09-06T03:18:20.861Z,24.80
2018-09-06T03:19:20.860Z,25.20
2018-09-06T03:20:20.857Z,25.40
2018-09-06T03:21:20.855Z,24.90
2018-09-06T03:22:20.855Z,25.30
2018-09-06T03:23:20.857Z,24.50
2018-09-06T03:24:20.854Z,24.20
2018-09-06T03:25:20.846Z,23.80
2018-09-06T03:26:20.846Z,24.00
2018-09-06T03:27:20.844Z,25.30
2018-09-06T03:28:20.843Z,24.30
2018-09-06T03:29:20.846Z,24.90
2018-09-06T03:30:20.845Z,26.20
2018-09-06T03:31:20.844Z,27.60
2018-09-06T03:32:20.843Z,28.20
2018-09-06T03:33:20.835Z,27.90
2018-09-06T03:34:20.833Z,27.90
2018-09-06T03:35:20.838Z,27.50
2018-09-06T03:36:20.832Z,27.80
2018-09-06T03:37:20.833Z,29.90
2018-09-06T03:38:20.831Z,29.00
2018-09-06T03:39:20.826Z,29.20
2018-09-06T03:40:20.824Z,30.50
2018-09-06T03:41:20.826Z,31.20
2018-09-06T03:42:20.823Z,29.90
2018-09-06T03:43:20.823Z,31.20
2018-09-06T03:44:20.821Z,31.30
2018-09-06T03:45:20.813Z,33.50
2018-09-06T03:46:20.811Z,31.70
2018-09-06T03:47:20.813Z,32.00
2018-09-06T03:48:20.808Z,32.40
2018-09-06T03:49:20.813Z,32.00
2018-09-06T03:50:20.808Z,31.70
2018-09-06T03:51:20.805Z,33.70
2018-09-06T03:52:20.806Z,32.60
2018-09-06T03:53:20.808Z,32.50
2018-09-06T03:54:20.801Z,33.10
2018-09-06T03:55:20.797Z,31.60
2018-09-06T03:56:20.811Z,31.00
2018-09-06T03:57:20.787Z,31.30
2018-09-06T03:58:20.790Z,31.40
2018-09-06T03:59:20.784Z,31.40
2018-09-06T04:00:20.787Z,30.30
2018-09-06T04:01:20.784Z,30.20
2018-09-06T04:02:20.795Z,31.10
2018-09-06T04:03:20.775Z,30.50
2018-09-06T04:04:20.774Z,29.70
2018-09-06T04:05:20.777Z,28.70
2018-09-06T04:06:20.780Z,30.00
2018-09-06T04:07:20.771Z,29.60
2018-09-06T04:08:20.768Z,28.50
2018-09-06T04:09:20.760Z,28.40
2018-09-06T04:10:20.759Z,28.30
2018-09-06T04:11:20.761Z,29.00
2018-09-06T04:12:20.758Z,27.90
2018-09-06T04:13:20.750Z,29.10
2018-09-06T04:14:20.748Z,28.30
2018-09-06T04:15:20.746Z,28.20
2018-09-06T04:16:20.745Z,27.30
2018-09-06T04:17:20.747Z,28.20
2018-09-06T04:18:20.752Z,28.30
2018-09-06T04:19:20.742Z,28.30
2018-09-06T04:20:20.741Z,27.10
2018-09-06T04:21:20.733Z,27.80
2018-09-06T04:22:20.730Z,29.10
2018-09-06T04:23:20.727Z,29.10
2018-09-06T04:24:20.799Z,27.80
2018-09-06T04:25:20.726Z,29.30
2018-09-06T04:26:20.723Z,29.80
2018-09-06T04:27:20.741Z,31.00
2018-09-06T04:28:20.715Z,30.00
2018-09-06T04:29:20.717Z,30.40
2018-09-06T04:30:20.714Z,31.50
2018-09-06T04:31:20.712Z,32.30
2018-09-06T04:32:20.710Z,31.20
2018-09-06T04:33:20.700Z,34.10
2018-09-06T04:34:20.699Z,34.20
2018-09-06T04:35:20.747Z,33.60
2018-09-06T04:36:20.695Z,35.00
2018-09-06T04:37:20.696Z,35.80
2018-09-06T04:38:20.693Z,35.90
2018-09-06T04:39:20.689Z,35.30
2018-09-06T04:40:20.686Z,34.50
2018-09-06T04:41:20.679Z,34.90
2018-09-06T04:42:20.676Z,33.70
2018-09-06T04:43:20.678Z,36.10
2018-09-06T04:44:20.676Z,35.80
2018-09-06T04:45:20.670Z,36.20
2018-09-06T04:46:20.666Z,36.30
2018-09-06T04:47:20.663Z,37.30
2018-09-06T04:48:20.661Z,35.50
2018-09-06T04:49:20.660Z,34.90
2018-09-06T04:50:20.658Z,37.20
2018-09-06T04:51:20.657Z,36.10
2018-09-06T04:52:20.653Z,36.30
2018-09-06T04:53:20.644Z,36.10
2018-09-06T04:54:20.642Z,34.80
2018-09-06T04:55:20.678Z,37.00
2018-09-06T04:56:20.637Z,37.90
2018-09-06T04:57:20.637Z,36.80
2018-09-06T04:58:20.692Z,36.70
2018-09-06T04:59:20.627Z,36.80
2018-09-06T05:00:20.625Z,35.90
2018-09-06T05:01:20.625Z,36.30
2018-09-06T05:02:20.622Z,37.00
2018-09-06T05:03:20.629Z,38.20
2018-09-06T05:04:20.655Z,37.90
2018-09-06T05:05:20.609Z,37.70
2018-09-06T05:06:20.642Z,34.30
2018-09-06T05:07:20.606Z,36.30
2018-09-06T05:08:20.599Z,35.40
2018-09-06T05:09:20.601Z,36.20
2018-09-06T05:10:20.600Z,34.50
2018-09-06T05:11:20.596Z,34.90
2018-09-06T05:12:20.597Z,36.50
2018-09-06T05:13:20.585Z,34.90
2018-09-06T05:14:20.581Z,34.20
2018-09-06T05:15:20.584Z,34.40
2018-09-06T05:16:20.582Z,34.90
2018-09-06T05:17:20.573Z,33.90
2018-09-06T05:18:20.571Z,31.90
2018-09-06T05:19:20.568Z,31.30
2018-09-06T05:20:20.564Z,31.00
2018-09-06T05:21:20.565Z,32.80
2018-09-06T05:22:20.563Z,33.40
2018-09-06T05:23:20.560Z,34.40
2018-09-06T05:24:20.558Z,32.40
2018-09-06T05:25:20.549Z,33.40
2018-09-06T05:26:20.547Z,34.30
2018-09-06T05:27:20.546Z,32.90
2018-09-06T05:28:20.541Z,34.70
2018-09-06T05:29:20.544Z,34.20
2018-09-06T05:30:20.541Z,31.70
2018-09-06T05:31:20.537Z,31.90
2018-09-06T05:32:20.531Z,34.30
2018-09-06T05:33:20.532Z,34.20
2018-09-06T05:34:20.530Z,33.20
2018-09-06T05:35:20.534Z,32.80
2018-09-06T05:36:20.583Z,34.20
2018-09-06T05:37:20.516Z,32.10
2018-09-06T05:38:20.513Z,32.70
2018-09-06T05:39:20.511Z,33.80
2018-09-06T05:40:20.508Z,34.60
2018-09-06T05:41:20.509Z,33.80
2018-09-06T05:42:20.509Z,34.60
2018-09-06T05:43:20.506Z,33.30
2018-09-06T05:44:20.506Z,32.90
2018-09-06T05:45:20.498Z,31.80
2018-09-06T05:46:20.491Z,33.70
2018-09-06T05:47:20.497Z,33.40
2018-09-06T05:48:20.491Z,34.50
2018-09-06T05:49:20.484Z,34.70
2018-09-06T05:50:20.480Z,33.30
2018-09-06T05:51:20.477Z,33.60
2018-09-06T05:52:20.475Z,33.50
2018-09-06T05:53:20.514Z,31.80
2018-09-06T05:54:20.473Z,34.60
2018-09-06T05:55:20.471Z,33.70
2018-09-06T05:56:20.469Z,32.60
2018-09-06T05:57:20.460Z,32.40
2018-09-06T05:58:20.460Z,32.80
2018-09-06T05:59:20.456Z,32.90
2018-09-06T06:00:20.461Z,34.40
2018-09-06T06:01:20.454Z,34.40
2018-09-06T06:02:20.452Z,33.50
2018-09-06T06:03:20.445Z,32.50
2018-09-06T06:04:20.443Z,33.70
2018-09-06T06:05:20.474Z,33.80
2018-09-06T06:06:20.440Z,33.80
2018-09-06T06:07:20.438Z,34.80
2018-09-06T06:08:20.435Z,35.60
2018-09-06T06:09:20.427Z,33.50
2018-09-06T06:10:20.424Z,33.80
2018-09-06T06:11:20.423Z,34.70
2018-09-06T06:12:20.419Z,34.00
2018-09-06T06:13:20.421Z,34.00
2018-09-06T06:14:20.417Z,35.50
2018-09-06T06:15:20.414Z,33.70
2018-09-06T06:16:20.411Z,35.20
2018-09-06T06:17:20.405Z,34.90
2018-09-06T06:18:20.401Z,35.30
2018-09-06T06:19:20.403Z,34.20
2018-09-06T06:20:20.401Z,34.50
2018-09-06T06:21:20.391Z,34.00
2018-09-06T06:22:20.390Z,33.80
2018-09-06T06:23:20.393Z,35.00
2018-09-06T06:24:20.385Z,33.90
2018-09-06T06:25:20.386Z,35.20
2018-09-06T06:26:20.383Z,35.00
2018-09-06T06:27:20.380Z,34.80
2018-09-06T06:28:20.378Z,34.20
2018-09-06T06:29:20.373Z,34.90
2018-09-06T06:30:20.369Z,34.10
2018-09-06T06:31:20.364Z,34.10
2018-09-06T06:32:20.449Z,33.60
2018-09-06T06:33:20.362Z,34.10
2018-09-06T06:34:20.358Z,35.30
2018-09-06T06:35:20.361Z,33.10
2018-09-06T06:36:20.348Z,33.70
2018-09-06T06:37:20.353Z,32.30
2018-09-06T06:38:20.346Z,34.40
2018-09-06T06:39:20.342Z,32.80
2018-09-06T06:40:20.339Z,32.30
2018-09-06T06:41:20.332Z,32.60
2018-09-06T06:42:20.332Z,32.20
2018-09-06T06:43:20.326Z,31.50
2018-09-06T06:44:20.323Z,32.20
2018-09-06T06:45:20.327Z,32.00
2018-09-06T06:46:20.322Z,31.60
2018-09-06T06:47:20.319Z,32.40
2018-09-06T06:48:20.316Z,32.10
2018-09-06T06:49:20.306Z,32.80
2018-09-06T06:50:20.321Z,31.20
2018-09-06T06:51:20.308Z,30.90
2018-09-06T06:52:20.303Z,30.40
2018-09-06T06:53:20.295Z,29.60
2018-09-06T06:54:20.295Z,30.70
2018-09-06T06:55:20.289Z,31.20
2018-09-06T06:56:20.288Z,31.20
2018-09-06T06:57:20.290Z,30.40
2018-09-06T06:58:20.287Z,30.20
2018-09-06T06:59:20.283Z,29.80
2018-09-06T07:00:20.279Z,29.70
2018-09-06T07:01:20.271Z,29.60
2018-09-06T07:02:20.270Z,29.20
2018-09-06T07:03:20.265Z,28.60
2018-09-06T07:04:20.351Z,29.60
2018-09-06T07:05:20.265Z,30.00
2018-09-06T07:06:20.262Z,29.10
2018-09-06T07:07:20.255Z,29.10
2018-09-06T07:08:20.252Z,27.40
2018-09-06T07:09:20.253Z,28.50
2018-09-06T07:10:20.249Z,28.80
2018-09-06T07:11:20.248Z,27.30
2018-09-06T07:12:20.245Z,28.80
2018-09-06T07:13:20.237Z,27.50
2018-09-06T07:14:20.235Z,27.80
2018-09-06T07:15:20.231Z,27.90
2018-09-06T07:16:20.229Z,29.00
2018-09-06T07:17:20.230Z,26.60
2018-09-06T07:18:20.403Z,28.80
2018-09-06T07:19:20.228Z,27.60
2018-09-06T07:20:20.223Z,26.90
2018-09-06T07:21:20.216Z,26.80
2018-09-06T07:22:20.212Z,26.40
2018-09-06T07:23:20.218Z,26.20
2018-09-06T07:24:20.213Z,27.10
2018-09-06T07:25:20.205Z,27.90
2018-09-06T07:26:20.201Z,26.00
2018-09-06T07:27:20.199Z,28.00
2018-09-06T07:28:20.199Z,28.30
2018-09-06T07:29:20.197Z,27.20
2018-09-06T07:30:20.235Z,27.60
2018-09-06T07:31:20.192Z,27.30
2018-09-06T07:32:20.189Z,27.90
2018-09-06T07:33:20.183Z,27.30
2018-09-06T07:34:20.179Z,28.10
2018-09-06T07:35:20.271Z,27.90
2018-09-06T07:36:20.175Z,27.90
2018-09-06T07:37:20.177Z,28.20
2018-09-06T07:38:20.174Z,27.90
2018-09-06T07:39:20.167Z,28.60
2018-09-06T07:40:20.164Z,27.30
2018-09-06T07:41:20.170Z,29.20
2018-09-06T07:42:20.163Z,27.70
2018-09-06T07:43:20.159Z,28.60
2018-09-06T07:44:20.157Z,27.60
2018-09-06T07:45:20.148Z,27.90
2018-09-06T07:46:20.146Z,28.60
2018-09-06T07:47:20.144Z,28.80
2018-09-06T07:48:20.191Z,28.90
2018-09-06T07:49:20.142Z,28.80
2018-09-06T07:50:20.140Z,30.20
2018-09-06T07:51:20.138Z,29.50
2018-09-06T07:52:20.193Z,29.30
2018-09-06T07:53:20.128Z,28.60
2018-09-06T07:54:20.125Z,28.60
2018-09-06T07:55:20.128Z,29.10
2018-09-06T07:56:20.126Z,28.50
2018-09-06T07:57:20.118Z,29.30
2018-09-06T07:58:20.116Z,29.30
2018-09-06T07:59:20.112Z,28.30
2018-09-06T08:00:20.110Z,29.00
2018-09-06T08:01:20.112Z,28.50
2018-09-06T08:02:20.109Z,28.30
2018-09-06T08:03:20.108Z,28.90
2018-09-06T08:04:20.105Z,27.50
2018-09-06T08:05:20.103Z,27.70
2018-09-06T08:06:20.096Z,28.30
2018-09-06T08:07:20.093Z,27.10
2018-09-06T08:08:20.091Z,28.00
2018-09-06T08:09:20.094Z,26.90
2018-09-06T08:10:20.092Z,27.60
2018-09-06T08:11:20.084Z,28.30
2018-09-06T08:12:20.082Z,28.80
2018-09-06T08:13:20.088Z,26.90
2018-09-06T08:14:20.081Z,27.60
2018-09-06T08:15:20.080Z,27.80
2018-09-06T08:16:20.077Z,27.00
2018-09-06T08:17:20.071Z,26.80
2018-09-06T08:18:20.069Z,27.10
2018-09-06T08:19:20.070Z,24.80
2018-09-06T08:20:20.065Z,25.80
2018-09-06T08:21:20.068Z,25.30
2018-09-06T08:22:20.065Z,25.00
2018-09-06T08:23:20.064Z,24.90
2018-09-06T08:24:20.073Z,25.50
2018-09-06T08:25:20.054Z,25.80
2018-09-06T08:26:20.053Z,25.50
2018-09-06T08:27:20.058Z,24.70
2018-09-06T08:28:20.057Z,25.60
2018-09-06T08:29:20.049Z,24.70
2018-09-06T08:30:20.049Z,24.30
2018-09-06T08:31:20.076Z,24.40
2018-09-06T08:32:20.043Z,23.80
2018-09-06T08:33:20.045Z,24.20
2018-09-06T08:34:20.043Z,23.90
2018-09-06T08:35:20.044Z,23.70
2018-09-06T08:36:20.043Z,23.90
2018-09-06T08:37:20.039Z,24.40
2018-09-06T08:38:20.033Z,23.00
2018-09-06T08:39:20.037Z,23.70
2018-09-06T08:40:20.032Z,23.90
2018-09-06T08:41:20.038Z,23.70
2018-09-06T08:42:20.034Z,23.20
2018-09-06T08:43:20.028Z,23.30
2018-09-06T08:44:20.026Z,23.50
2018-09-06T08:45:20.052Z,23.50
2018-09-06T08:46:20.027Z,23.50
2018-09-06T08:47:20.027Z,23.30
2018-09-06T08:48:20.025Z,25.00
2018-09-06T08:49:20.019Z,23.80
2018-09-06T08:50:20.019Z,23.70
2018-09-06T08:51:20.016Z,25.30
2018-09-06T08:52:20.020Z,23.90
2018-09-06T08:53:20.019Z,24.40
2018-09-06T08:54:20.016Z,24.70
2018-09-06T08:55:20.017Z,26.30
2018-09-06T08:56:20.016Z,24.90
2018-09-06T08:57:20.010Z,26.30
2018-09-06T08:58:20.040Z,25.00
2018-09-06T08:59:20.014Z,25.30
2018-09-06T09:00:20.012Z,26.40
2018-09-06T09:01:20.003Z,26.30
2018-09-06T09:02:20.125Z,25.20
2018-09-06T09:03:20.072Z,19.80
2018-09-06T09:04:20.006Z,15.20
2018-09-06T09:05:20.002Z,17.40
2018-09-06T09:06:20.000Z,14.10
2018-09-06T09:07:19.999Z,14.30
2018-09-06T09:08:20.030Z,15.10
2018-09-06T09:09:19.996Z,15.50
2018-09-06T09:10:19.991Z,22.30
2018-09-06T09:11:19.989Z,15.30
2018-09-06T09:12:20.002Z,20.80
2018-09-06T09:13:20.026Z,16.60
2018-09-06T09:14:19.990Z,20.10
2018-09-06T09:15:19.985Z,23.10
2018-09-06T09:16:19.984Z,21.30
2018-09-06T09:17:19.989Z,23.50
2018-09-06T09:18:19.991Z,21.40
2018-09-06T09:19:19.984Z,21.90
2018-09-06T09:20:19.982Z,21.90
2018-09-06T09:21:19.977Z,25.30
2018-09-06T09:22:19.985Z,21.20
2018-09-06T09:23:19.976Z,21.70
2018-09-06T09:24:19.973Z,24.00
2018-09-06T09:25:19.980Z,24.50
2018-09-06T09:26:19.977Z,24.20
2018-09-06T09:27:19.975Z,23.10
2018-09-06T09:28:19.973Z,24.30
2018-09-06T09:29:19.974Z,24.50
2018-09-06T09:30:19.966Z,24.10
2018-09-06T09:31:19.969Z,24.80
2018-09-06T09:32:19.969Z,24.90
2018-09-06T09:33:19.966Z,26.90
2018-09-06T09:34:19.962Z,26.30
2018-09-06T09:35:19.962Z,26.00
2018-09-06T09:36:19.960Z,25.30
2018-09-06T09:37:19.965Z,25.50
2018-09-06T09:38:19.964Z,27.10
2018-09-06T09:39:19.962Z,25.70
2018-09-06T09:40:19.962Z,24.80
2018-09-06T09:41:19.956Z,25.80
2018-09-06T09:42:19.954Z,25.00
2018-09-06T09:43:20.003Z,24.90
2018-09-06T09:44:19.953Z,24.80
2018-09-06T09:45:19.956Z,24.90
2018-09-06T09:47:41.498Z,25.90
2018-09-06T09:48:41.490Z,26.40
2018-09-06T09:49:41.558Z,25.30
2018-09-06T09:51:20.787Z,26.70
2018-09-06T09:52:20.779Z,27.00
2018-09-06T09:53:20.778Z,26.00
2018-09-06T09:54:20.776Z,27.30
2018-09-06T09:55:20.778Z,28.20
2018-09-06T09:56:20.778Z,27.30
2018-09-06T09:57:20.777Z,26.90
2018-09-06T09:58:20.772Z,26.90
2018-09-06T09:59:20.771Z,27.00
2018-09-06T10:00:20.774Z,27.80
2018-09-06T10:01:20.774Z,27.10
2018-09-06T10:02:20.772Z,27.80
2018-09-06T10:03:20.772Z,28.50
2018-09-06T10:04:20.766Z,26.90
2018-09-06T10:05:20.764Z,26.90
2018-09-06T10:06:20.766Z,27.80
2018-09-06T10:07:20.761Z,28.60
2018-09-06T10:08:20.766Z,28.70
2018-09-06T10:09:20.764Z,28.00
2018-09-06T10:10:20.761Z,28.10
2018-09-06T10:11:20.761Z,28.90
2018-09-06T10:12:20.756Z,27.80
2018-09-06T10:13:20.753Z,29.10
2018-09-06T10:14:20.755Z,27.80
2018-09-06T10:15:20.756Z,28.40
2018-09-06T10:16:20.750Z,29.20
2018-09-06T10:17:20.749Z,28.90
2018-09-06T10:18:20.746Z,29.40
2018-09-06T10:19:20.744Z,29.50
2018-09-06T10:20:20.748Z,29.20
2018-09-06T10:21:20.746Z,29.90
2018-09-06T10:22:20.744Z,29.90
2018-09-06T10:23:20.743Z,30.80
2018-09-06T10:24:20.738Z,31.30
2018-09-06T10:25:20.734Z,28.20
2018-09-06T10:26:20.744Z,28.80
2018-09-06T10:27:20.732Z,29.10
2018-09-06T10:28:20.734Z,29.80
2018-09-06T10:29:20.732Z,30.70
2018-09-06T10:30:20.729Z,29.90
2018-09-06T10:31:20.724Z,30.50
2018-09-06T10:32:20.728Z,31.10
2018-09-06T10:33:20.726Z,31.70
2018-09-06T10:34:20.725Z,33.20
2018-09-06T10:35:20.742Z,31.50
2018-09-06T10:36:20.716Z,33.20
2018-09-06T10:37:20.713Z,31.90
2018-09-06T10:38:20.718Z,33.50
2018-09-06T10:39:20.783Z,32.60
2018-09-06T10:40:20.714Z,32.10
2018-09-06T10:41:20.711Z,33.60
2018-09-06T10:42:20.710Z,31.40
2018-09-06T10:43:20.706Z,32.90
2018-09-06T10:44:20.699Z,33.10
2018-09-06T10:45:20.698Z,32.70
2018-09-06T10:46:20.698Z,33.30
2018-09-06T10:47:20.697Z,31.70
2018-09-06T10:48:20.690Z,31.70
2018-09-06T10:49:20.688Z,31.90
2018-09-06T10:50:20.688Z,30.40
2018-09-06T10:51:20.684Z,29.40
2018-09-06T10:52:20.687Z,29.50
2018-09-06T10:53:20.688Z,28.40
2018-09-06T10:54:20.681Z,28.70
2018-09-06T10:55:20.680Z,27.70
2018-09-06T10:56:20.675Z,28.30
2018-09-06T10:57:20.671Z,28.70
2018-09-06T10:58:20.673Z,28.40
2018-09-06T10:59:20.667Z,28.10
2018-09-06T11:00:20.672Z,28.50
2018-09-06T11:01:20.668Z,27.90
2018-09-06T11:02:20.661Z,27.60
2018-09-06T11:03:20.659Z,26.50
2018-09-06T11:04:20.664Z,25.80
2018-09-06T11:05:20.660Z,26.00
2018-09-06T11:06:20.656Z,25.90
2018-09-06T11:11:20.643Z,26.40
2018-09-06T11:12:20.645Z,25.70
2018-09-06T11:13:20.643Z,26.40
2018-09-06T11:14:20.650Z,26.70
2018-09-06T11:15:20.642Z,27.00
2018-09-06T11:16:20.633Z,23.90
2018-09-06T11:17:20.630Z,26.10
2018-09-06T11:18:20.633Z,26.50
2018-09-06T11:19:20.630Z,25.90
2018-09-06T11:20:20.625Z,27.30
2018-09-06T11:21:20.780Z,25.70
2018-09-06T11:22:20.756Z,26.80
2018-09-06T11:23:20.618Z,26.90
2018-09-06T11:24:20.620Z,24.80
2018-09-06T11:25:20.624Z,27.40
2018-09-06T11:26:20.616Z,26.30
2018-09-06T11:27:20.645Z,26.20
2018-09-06T11:28:20.608Z,27.20
2018-09-06T11:29:20.606Z,26.40
2018-09-06T11:30:20.605Z,27.40
2018-09-06T11:31:20.603Z,26.40
2018-09-06T11:32:20.606Z,27.60
2018-09-06T11:33:20.646Z,26.60
2018-09-06T11:34:20.597Z,26.80
2018-09-06T11:35:20.602Z,27.20
2018-09-06T11:36:20.599Z,26.80
2018-09-06T11:37:20.597Z,26.40
2018-09-06T11:38:20.597Z,26.30
2018-09-06T11:39:20.595Z,27.80
2018-09-06T11:40:20.593Z,26.90
2018-09-06T11:41:20.586Z,25.60
2018-09-06T11:42:20.586Z,26.00
2018-09-06T11:43:20.585Z,27.20
2018-09-06T11:44:20.591Z,24.00
2018-09-06T11:45:20.585Z,25.40
2018-09-06T11:46:20.586Z,25.90
2018-09-06T11:47:20.616Z,26.60
2018-09-06T11:48:20.581Z,24.60
2018-09-06T11:49:20.581Z,25.50
2018-09-06T11:50:20.583Z,26.20
2018-09-06T11:51:20.583Z,24.80
2018-09-06T11:52:20.602Z,25.40
2018-09-06T11:53:20.574Z,24.80
2018-09-06T11:54:20.573Z,25.90
2018-09-06T11:55:20.574Z,26.10
2018-09-06T11:59:20.598Z,27.70
2018-09-06T12:00:20.568Z,28.10
2018-09-06T12:01:20.567Z,27.20
2018-09-06T12:02:20.567Z,27.50
2018-09-06T12:03:20.565Z,27.90
2018-09-06T12:04:20.568Z,28.60
2018-09-06T12:05:20.566Z,29.40
2018-09-06T12:06:20.561Z,28.60
2018-09-06T12:07:20.560Z,28.50
2018-09-06T12:08:20.563Z,27.30
2018-09-06T12:09:20.561Z,29.80
2018-09-06T12:10:20.561Z,29.50
2018-09-06T12:11:20.560Z,29.60
2018-09-06T12:12:20.556Z,30.00
2018-09-06T12:13:20.553Z,30.20
2018-09-06T12:14:20.552Z,30.10
2018-09-06T12:15:20.553Z,30.50
2018-09-06T12:16:20.555Z,29.90
2018-09-06T12:17:20.555Z,30.20
2018-09-06T12:18:20.551Z,30.40
2018-09-06T12:19:20.604Z,28.80
2018-09-06T12:20:20.545Z,30.80
2018-09-06T12:21:20.542Z,29.60
2018-09-06T12:22:20.546Z,29.30
2018-09-06T12:23:20.545Z,29.30
2018-09-06T12:24:20.540Z,30.30
2018-09-06T12:25:20.612Z,30.00
2018-09-06T12:26:20.539Z,29.60
2018-09-06T12:27:20.538Z,29.90
2018-09-06T12:28:20.544Z,29.80
2018-09-06T12:29:20.542Z,30.60
2018-09-06T12:30:20.539Z,30.10
2018-09-06T12:31:20.538Z,29.90
2018-09-06T12:32:20.564Z,31.00
2018-09-06T12:33:20.767Z,30.20
2018-09-06T12:34:20.530Z,30.60
2018-09-06T12:35:20.529Z,30.60
2018-09-06T12:36:20.533Z,31.50
2018-09-06T12:37:20.533Z,29.90
2018-09-06T12:38:20.527Z,30.20
2018-09-06T12:39:20.526Z,29.20
2018-09-06T12:40:20.535Z,30.70
2018-09-06T12:41:20.533Z,29.60
2018-09-06T12:42:20.531Z,29.30
2018-09-06T12:43:20.532Z,29.60
2018-09-06T12:44:20.527Z,31.20
2018-09-06T12:45:20.525Z,30.30
2018-09-06T12:46:20.527Z,30.70
2018-09-06T12:47:20.527Z,31.10
2018-09-06T12:48:20.531Z,28.40
2018-09-06T12:49:20.530Z,32.10
2018-09-06T12:50:20.529Z,32.30
2018-09-06T12:51:20.528Z,31.30
2018-09-06T12:52:20.524Z,30.70
2018-09-06T12:53:20.524Z,30.20
2018-09-06T12:54:20.528Z,32.80
2018-09-06T12:55:20.528Z,31.10
2018-09-06T12:56:20.523Z,31.10
2018-09-06T12:57:20.523Z,32.20
2018-09-06T12:58:20.524Z,33.30
2018-09-06T12:59:20.523Z,31.90
2018-09-06T13:00:20.530Z,32.00
2018-09-06T13:01:20.527Z,31.80